createdAt,value
2022-10-28T00:00:26.308Z,12.30
2022-10-28T00:03:28.090Z,12.34
2022-10-28T00:06:35.498Z,12.17
2022-10-28T00:09:37.569Z,12.38
2022-10-28T00:12:39.357Z,12.59
2022-10-28T00:15:41.219Z,12.61
2022-10-28T00:18:43.202Z,12.79
2022-10-28T00:21:46.039Z,12.89
2022-10-28T00:24:47.712Z,12.96
2022-10-28T00:27:49.485Z,12.94
2022-10-28T00:30:51.343Z,12.97
2022-10-28T00:33:54.050Z,13.00
2022-10-28T00:36:55.837Z,13.02
2022-10-28T00:39:57.607Z,13.01
2022-10-28T00:42:59.374Z,12.91
2022-10-28T00:46:02.148Z,12.99
2022-10-28T00:49:17.328Z,12.58
2022-10-28T00:52:22.677Z,12.46
2022-10-28T00:55:24.833Z,12.29
2022-10-28T00:58:26.897Z,12.14
2022-10-28T01:01:29.102Z,12.36
2022-10-28T01:04:31.305Z,12.49
2022-10-28T01:07:33.106Z,12.53
2022-10-28T01:11:05.986Z,12.60
2022-10-28T01:14:26.722Z,12.49
2022-10-28T01:17:41.266Z,12.52
2022-10-28T01:21:07.799Z,12.55
2022-10-28T01:24:36.530Z,12.55
2022-10-28T01:27:57.138Z,12.70
2022-10-28T01:31:04.834Z,12.77
2022-10-28T01:34:09.619Z,12.65
2022-10-28T01:37:24.694Z,12.68
2022-10-28T01:40:37.359Z,12.72
2022-10-28T01:43:39.350Z,12.68
2022-10-28T01:46:48.447Z,12.50
2022-10-28T01:50:01.892Z,12.62
2022-10-28T01:53:11.198Z,12.62
2022-10-28T01:56:16.578Z,12.44
2022-10-28T01:59:21.707Z,12.21
2022-10-28T02:02:23.858Z,12.12
2022-10-28T02:05:51.407Z,12.04
2022-10-28T02:08:57.228Z,12.18
2022-10-28T02:12:22.377Z,12.43
2022-10-28T02:15:42.627Z,12.57
2022-10-28T02:19:06.201Z,12.59
2022-10-28T02:22:25.409Z,12.65
2022-10-28T02:25:40.281Z,12.61
2022-10-28T02:28:43.504Z,12.65
2022-10-28T02:31:49.696Z,12.69
2022-10-28T02:34:54.824Z,12.61
2022-10-28T02:37:59.734Z,12.64
2022-10-28T02:41:06.873Z,12.64
2022-10-28T02:44:09.865Z,12.62
2022-10-28T02:47:14.139Z,12.49
2022-10-28T02:50:19.002Z,12.61
2022-10-28T02:53:32.540Z,12.62
2022-10-28T02:56:41.140Z,12.62
2022-10-28T02:59:43.070Z,12.68
2022-10-28T03:02:44.881Z,12.69
2022-10-28T03:05:46.600Z,12.73
2022-10-28T03:08:48.374Z,12.78
2022-10-28T03:11:50.126Z,12.72
2022-10-28T03:14:51.908Z,12.64
2022-10-28T03:17:55.968Z,12.65
2022-10-28T03:20:59.087Z,12.65
2022-10-28T03:24:01.385Z,12.59
2022-10-28T03:27:03.149Z,12.59
2022-10-28T03:30:05.321Z,12.64
2022-10-28T03:33:07.209Z,12.71
2022-10-28T03:36:08.991Z,12.64
2022-10-28T03:39:10.870Z,12.62
2022-10-28T03:42:12.996Z,12.62
2022-10-28T03:45:14.819Z,12.53
2022-10-28T03:48:17.219Z,12.47
2022-10-28T03:51:19.089Z,12.52
2022-10-28T03:54:20.808Z,12.53
2022-10-28T03:57:32.121Z,12.58
2022-10-28T04:00:33.945Z,12.53
2022-10-28T04:03:35.856Z,12.54
2022-10-28T04:06:37.706Z,12.54
2022-10-28T04:09:39.620Z,12.50
2022-10-28T04:12:41.534Z,12.46
2022-10-28T04:15:43.652Z,12.48
2022-10-28T04:18:45.607Z,12.55
2022-10-28T04:21:47.375Z,12.47
2022-10-28T04:24:49.393Z,12.40
2022-10-28T04:27:51.505Z,12.54
2022-10-28T04:30:53.610Z,12.53
2022-10-28T04:33:55.401Z,12.57
2022-10-28T04:36:57.254Z,12.62
2022-10-28T04:39:59.367Z,12.59
2022-10-28T04:43:01.352Z,12.58
2022-10-28T04:46:06.238Z,12.55
2022-10-28T04:49:09.063Z,12.57
2022-10-28T04:52:14.813Z,12.64
2022-10-28T04:55:17.986Z,12.59
2022-10-28T04:58:19.933Z,12.67
2022-10-28T05:01:22.031Z,12.62
2022-10-28T05:04:23.897Z,12.54
2022-10-28T05:07:25.849Z,12.51
2022-10-28T05:10:27.826Z,12.52
2022-10-28T05:17:00.182Z,12.54
2022-10-28T05:20:02.012Z,12.55
2022-10-28T05:23:25.796Z,12.49
2022-10-28T05:26:30.310Z,12.48
2022-10-28T05:29:33.387Z,12.47
2022-10-28T05:32:35.375Z,12.51
2022-10-28T05:35:39.354Z,12.49
2022-10-28T05:38:42.670Z,12.51
2022-10-28T05:41:44.709Z,12.57
2022-10-28T05:44:46.571Z,12.59
2022-10-28T05:47:49.046Z,12.60
2022-10-28T05:50:50.785Z,12.59
2022-10-28T05:53:53.288Z,12.65
2022-10-28T05:56:55.343Z,12.53
2022-10-28T05:59:57.257Z,12.54
2022-10-28T06:03:09.530Z,12.57
2022-10-28T06:06:11.266Z,12.55
2022-10-28T06:09:13.205Z,12.60
2022-10-28T06:12:13.465Z,12.70
2022-10-28T06:15:15.555Z,12.71
2022-10-28T06:18:18.982Z,12.68
2022-10-28T06:21:20.999Z,12.62
2022-10-28T06:24:23.281Z,12.67
2022-10-28T06:27:25.578Z,12.72
2022-10-28T06:30:27.841Z,12.78
2022-10-28T06:33:30.451Z,12.80
2022-10-28T06:36:32.701Z,12.79
2022-10-28T06:39:36.911Z,12.76
2022-10-28T06:42:39.205Z,12.83
2022-10-28T06:45:41.511Z,12.84
2022-10-28T06:48:44.979Z,12.96
2022-10-28T06:51:47.116Z,12.96
2022-10-28T06:54:49.185Z,12.87
2022-10-28T06:57:51.612Z,12.96
2022-10-28T07:00:54.322Z,13.00
2022-10-28T07:03:56.557Z,13.03
2022-10-28T07:06:59.209Z,12.95
2022-10-28T07:10:01.420Z,13.05
2022-10-28T07:13:03.553Z,13.07
2022-10-28T07:16:06.017Z,12.87
2022-10-28T07:19:10.711Z,13.00
2022-10-28T07:22:13.127Z,12.99
2022-10-28T07:25:15.256Z,12.85
2022-10-28T07:28:17.539Z,12.80
2022-10-28T07:31:19.603Z,12.59
2022-10-28T07:34:26.746Z,12.59
2022-10-28T07:37:29.351Z,12.65
2022-10-28T07:40:31.314Z,12.19
2022-10-28T07:43:39.518Z,12.34
2022-10-28T07:46:42.073Z,12.28
2022-10-28T07:49:44.182Z,12.33
2022-10-28T07:52:46.135Z,12.40
2022-10-28T07:55:59.156Z,12.56
2022-10-28T07:59:01.264Z,12.50
2022-10-28T08:02:03.807Z,12.52
2022-10-28T08:05:06.433Z,12.75
2022-10-28T08:08:08.565Z,12.45
2022-10-28T08:11:16.218Z,12.32
2022-10-28T08:14:18.202Z,12.41
2022-10-28T08:17:20.397Z,12.28
2022-10-28T08:20:22.657Z,12.15
2022-10-28T08:23:30.439Z,12.19
2022-10-28T08:26:32.443Z,12.11
2022-10-28T08:29:34.853Z,12.29
2022-10-28T08:32:36.717Z,12.19
2022-10-28T08:35:38.666Z,12.27
2022-10-28T08:38:47.989Z,12.46
2022-10-28T08:42:00.901Z,12.55
2022-10-28T08:45:21.683Z,12.47
2022-10-28T08:48:35.539Z,12.60
2022-10-28T08:51:40.650Z,12.79
2022-10-28T08:54:42.538Z,12.48
2022-10-28T08:57:46.323Z,12.55
2022-10-28T09:00:53.493Z,12.69
2022-10-28T09:03:55.575Z,12.69
2022-10-28T09:06:57.626Z,12.62
2022-10-28T09:09:59.782Z,12.13
2022-10-28T09:13:07.463Z,12.38
2022-10-28T09:16:31.288Z,12.48
2022-10-28T09:19:47.834Z,12.44
2022-10-28T09:23:27.012Z,12.24
2022-10-28T09:26:35.773Z,12.29
2022-10-28T09:29:44.175Z,12.50
2022-10-28T09:33:10.908Z,12.53
2022-10-28T09:36:21.904Z,12.48
2022-10-28T09:39:28.153Z,12.74
2022-10-28T09:45:46.560Z,12.73
2022-10-28T09:48:52.757Z,12.67
2022-10-28T09:52:05.781Z,12.32
2022-10-28T09:55:16.624Z,12.27
2022-10-28T09:58:19.366Z,12.61
2022-10-28T10:01:21.616Z,12.68
2022-10-28T10:04:25.653Z,12.87
2022-10-28T10:07:38.048Z,12.77
2022-10-28T10:10:56.727Z,12.82
2022-10-28T10:14:01.091Z,12.92
2022-10-28T10:17:12.439Z,12.95
2022-10-28T10:20:23.294Z,12.95
2022-10-28T10:23:37.539Z,13.18
2022-10-28T10:26:39.637Z,13.24
2022-10-28T10:29:53.057Z,13.19
2022-10-28T10:32:55.551Z,13.26
2022-10-28T10:36:09.855Z,13.01
2022-10-28T10:39:35.155Z,13.01
2022-10-28T10:42:42.715Z,13.29
2022-10-28T10:46:03.284Z,13.24
2022-10-28T10:49:16.834Z,13.16
2022-10-28T10:52:21.671Z,13.01
2022-10-28T10:55:29.789Z,13.13
2022-10-28T10:58:35.588Z,13.37
2022-10-28T11:01:40.303Z,13.43
2022-10-28T11:04:50.860Z,12.98
2022-10-28T11:07:53.594Z,12.84
2022-10-28T11:11:20.374Z,13.18
2022-10-28T11:14:30.639Z,13.41
2022-10-28T11:17:34.858Z,13.53
2022-10-28T11:21:01.479Z,13.63
2022-10-28T11:24:09.460Z,13.57
2022-10-28T11:27:42.612Z,13.34
2022-10-28T11:30:44.552Z,13.46
2022-10-28T11:34:10.267Z,13.37
2022-10-28T11:37:36.721Z,13.51
2022-10-28T11:41:09.768Z,13.52
2022-10-28T11:44:41.524Z,13.57
2022-10-28T11:47:46.652Z,13.51
2022-10-28T11:50:55.859Z,13.71
2022-10-28T11:54:32.196Z,13.94
2022-10-28T11:57:56.365Z,13.90
2022-10-28T12:01:17.145Z,13.91
2022-10-28T12:04:50.150Z,13.97
2022-10-28T12:08:13.264Z,13.94
2022-10-28T12:11:47.577Z,13.85
2022-10-28T12:15:14.499Z,14.02
2022-10-28T12:18:22.510Z,13.98
2022-10-28T12:21:37.808Z,14.12
2022-10-28T12:24:41.620Z,14.37
2022-10-28T12:27:45.717Z,14.41
2022-10-28T12:30:49.296Z,14.24
2022-10-28T12:33:57.344Z,14.05
2022-10-28T12:37:05.450Z,14.22
2022-10-28T12:40:53.577Z,14.31
2022-10-28T12:44:12.659Z,14.32
2022-10-28T12:47:21.390Z,14.41
2022-10-28T12:50:56.012Z,14.48
2022-10-28T12:54:06.920Z,14.43
2022-10-28T12:57:14.387Z,14.45
2022-10-28T13:00:28.687Z,14.43
2022-10-28T13:03:30.676Z,14.52
2022-10-28T13:06:57.535Z,14.21
2022-10-28T13:10:13.082Z,14.40
2022-10-28T13:13:29.784Z,14.24
2022-10-28T13:16:53.835Z,14.35
2022-10-28T13:20:12.610Z,14.32
2022-10-28T13:23:20.546Z,14.38
2022-10-28T13:26:31.213Z,14.39
2022-10-28T13:29:35.454Z,14.33
2022-10-28T13:32:39.780Z,14.28
2022-10-28T13:35:42.250Z,14.27
2022-10-28T13:38:53.599Z,14.32
2022-10-28T13:42:23.485Z,14.30
2022-10-28T13:45:48.749Z,14.31
2022-10-28T13:48:50.824Z,14.36
2022-10-28T13:52:12.152Z,14.42
2022-10-28T13:55:14.063Z,14.33
2022-10-28T13:58:23.974Z,14.26
2022-10-28T14:02:01.312Z,14.18
2022-10-28T14:05:12.123Z,14.27
2022-10-28T14:08:32.880Z,14.09
2022-10-28T14:11:35.011Z,13.97
2022-10-28T14:14:37.474Z,14.11
2022-10-28T14:17:41.211Z,14.16
2022-10-28T14:20:49.121Z,14.11
2022-10-28T14:24:07.682Z,14.11
2022-10-28T14:27:10.114Z,14.15
2022-10-28T14:30:23.016Z,14.17
2022-10-28T14:33:24.999Z,14.19
2022-10-28T14:36:50.518Z,14.19
2022-10-28T14:40:42.954Z,14.18
2022-10-28T14:43:57.538Z,14.16
2022-10-28T14:47:37.430Z,14.16
2022-10-28T14:50:48.158Z,14.19
2022-10-28T14:53:53.173Z,14.21
2022-10-28T14:56:57.567Z,14.16
2022-10-28T15:00:05.191Z,14.15
2022-10-28T15:03:10.506Z,14.11
2022-10-28T15:06:31.014Z,14.03
2022-10-28T15:09:35.035Z,13.98
2022-10-28T15:12:36.965Z,13.98
2022-10-28T15:15:39.477Z,13.92
2022-10-28T15:18:46.985Z,13.83
2022-10-28T15:22:17.528Z,13.77
2022-10-28T15:25:21.509Z,13.61
2022-10-28T15:28:23.751Z,13.62
2022-10-28T15:31:25.972Z,13.67
2022-10-28T15:34:29.556Z,13.74
2022-10-28T15:37:36.535Z,13.74
2022-10-28T15:40:39.114Z,13.77
2022-10-28T15:43:41.463Z,13.80
2022-10-28T15:46:49.287Z,13.84
2022-10-28T15:50:17.437Z,13.84
2022-10-28T15:53:32.278Z,13.75
2022-10-28T15:56:54.645Z,13.79
2022-10-28T16:00:25.854Z,13.77
2022-10-28T16:03:54.134Z,13.81
2022-10-28T16:06:57.500Z,13.72
2022-10-28T16:09:59.475Z,13.72
2022-10-28T16:13:04.454Z,13.78
2022-10-28T16:16:13.390Z,13.78
2022-10-28T16:19:30.339Z,13.77
2022-10-28T16:22:35.040Z,13.75
2022-10-28T16:25:37.143Z,13.67
2022-10-28T16:28:41.415Z,13.65
2022-10-28T16:31:50.245Z,13.56
2022-10-28T16:34:55.266Z,13.41
2022-10-28T16:37:57.066Z,13.45
2022-10-28T16:41:00.528Z,13.33
2022-10-28T16:44:02.872Z,13.19
2022-10-28T16:47:16.573Z,13.20
2022-10-28T16:50:18.642Z,13.26
2022-10-28T16:53:21.115Z,13.27
2022-10-28T16:56:23.015Z,13.24
2022-10-28T16:59:24.753Z,13.33
2022-10-28T17:02:33.902Z,13.20
2022-10-28T17:05:35.903Z,13.33
2022-10-28T17:09:01.849Z,13.35
2022-10-28T17:12:02.252Z,13.35
2022-10-28T17:15:04.474Z,13.29
2022-10-28T17:18:06.662Z,13.27
2022-10-28T17:21:08.514Z,13.27
2022-10-28T17:24:10.712Z,13.30
2022-10-28T17:27:15.756Z,13.28
2022-10-28T17:30:18.044Z,13.23
2022-10-28T17:33:20.157Z,13.27
2022-10-28T17:36:23.371Z,13.24
2022-10-28T17:39:26.583Z,13.24
2022-10-28T17:42:29.035Z,13.24
2022-10-28T17:45:30.976Z,13.21
2022-10-28T17:48:33.464Z,13.25
2022-10-28T17:51:37.042Z,13.18
2022-10-28T17:54:39.516Z,13.10
2022-10-28T17:57:41.558Z,13.05
2022-10-28T18:00:44.325Z,13.04
2022-10-28T18:03:50.500Z,13.09
2022-10-28T18:06:57.298Z,13.04
2022-10-28T18:09:59.403Z,13.11
2022-10-28T18:13:02.116Z,13.05
2022-10-28T18:16:05.406Z,12.97
2022-10-28T18:19:08.784Z,12.98
2022-10-28T18:22:11.142Z,12.93
2022-10-28T18:25:13.811Z,12.79
2022-10-28T18:28:17.832Z,12.86
2022-10-28T18:31:20.761Z,12.70
2022-10-28T18:34:24.108Z,12.82
2022-10-28T18:37:28.572Z,12.80
2022-10-28T18:40:30.446Z,12.78
2022-10-28T18:43:32.465Z,12.77
2022-10-28T18:46:38.175Z,12.83
2022-10-28T18:49:40.320Z,12.87
2022-10-28T18:52:42.138Z,12.81
2022-10-28T18:55:43.943Z,12.89
2022-10-28T18:58:49.253Z,12.65
2022-10-28T19:01:51.354Z,12.75
2022-10-28T19:04:53.682Z,12.86
2022-10-28T19:07:56.170Z,12.81
2022-10-28T19:10:59.319Z,12.83
2022-10-28T19:14:05.597Z,12.79
2022-10-28T19:17:09.003Z,12.88
2022-10-28T19:20:11.398Z,12.77
2022-10-28T19:23:13.703Z,12.84
2022-10-28T19:26:16.200Z,12.76
2022-10-28T19:29:18.379Z,12.83
2022-10-28T19:32:20.331Z,12.72
2022-10-28T19:35:22.334Z,12.67
2022-10-28T19:38:24.210Z,12.60
2022-10-28T19:41:29.251Z,12.63
2022-10-28T19:44:31.492Z,12.70
2022-10-28T19:47:33.250Z,12.82
2022-10-28T19:50:35.564Z,12.73
2022-10-28T19:53:37.669Z,12.66
2022-10-28T19:56:39.826Z,12.67
2022-10-28T19:59:41.994Z,12.51
2022-10-28T20:02:44.445Z,12.64
2022-10-28T20:05:49.526Z,12.70
2022-10-28T20:08:51.575Z,12.71
2022-10-28T20:11:53.654Z,12.56
2022-10-28T20:14:55.755Z,12.46
2022-10-28T20:17:58.026Z,12.46
2022-10-28T20:21:05.378Z,12.50
2022-10-28T20:24:08.273Z,12.45
2022-10-28T20:27:10.307Z,12.32
2022-10-28T20:30:12.589Z,12.55
2022-10-28T20:33:21.440Z,12.43
2022-10-28T20:36:28.950Z,12.39
2022-10-28T20:39:31.615Z,12.53
2022-10-28T20:42:33.913Z,12.55
2022-10-28T20:45:35.981Z,12.62
2022-10-28T20:48:38.158Z,12.60
2022-10-28T20:51:41.066Z,12.62
2022-10-28T20:54:43.104Z,12.68
2022-10-28T20:57:45.050Z,12.78
2022-10-28T21:00:47.580Z,12.75
2022-10-28T21:03:49.908Z,12.60
2022-10-28T21:06:52.195Z,12.47
2022-10-28T21:09:54.212Z,12.52
2022-10-28T21:12:56.587Z,12.38
2022-10-28T21:15:58.854Z,12.58
2022-10-28T21:19:01.327Z,12.69
2022-10-28T21:22:03.186Z,12.68
2022-10-28T21:25:05.841Z,12.81
2022-10-28T21:28:07.892Z,12.77
2022-10-28T21:31:14.484Z,12.75
2022-10-28T21:34:16.727Z,12.58
2022-10-28T21:37:19.445Z,12.57
2022-10-28T21:40:21.392Z,12.64
2022-10-28T21:43:26.942Z,12.69
2022-10-28T21:46:28.840Z,12.69
2022-10-28T21:49:30.804Z,12.71
2022-10-28T21:52:32.592Z,12.75
2022-10-28T21:55:46.210Z,12.75
2022-10-28T21:58:50.861Z,12.82
2022-10-28T22:01:53.142Z,12.88
2022-10-28T22:04:55.210Z,12.91
2022-10-28T22:07:57.291Z,12.82
2022-10-28T22:11:19.123Z,12.84
2022-10-28T22:14:21.719Z,12.80
2022-10-28T22:17:23.903Z,12.71
2022-10-28T22:23:27.571Z,12.65
2022-10-28T22:26:30.599Z,12.75
2022-10-28T22:29:32.471Z,12.75
2022-10-28T22:32:34.382Z,12.80
2022-10-28T22:35:38.588Z,12.75
2022-10-28T22:38:42.937Z,12.85
2022-10-28T22:41:44.715Z,12.80
2022-10-28T22:44:46.590Z,12.76
2022-10-28T22:47:50.632Z,12.79
2022-10-28T22:50:52.861Z,12.84
2022-10-28T22:53:54.783Z,12.84
2022-10-28T22:56:57.130Z,12.79
2022-10-28T22:59:58.980Z,12.84
2022-10-28T23:03:00.959Z,12.93
2022-10-28T23:06:02.901Z,12.88
2022-10-28T23:09:04.952Z,12.65
2022-10-28T23:12:07.173Z,12.75
2022-10-28T23:15:09.100Z,12.73
2022-10-28T23:18:10.823Z,12.77
2022-10-28T23:21:23.687Z,12.80
2022-10-28T23:24:25.554Z,12.73
2022-10-28T23:27:27.269Z,12.81
2022-10-28T23:30:29.040Z,12.83
2022-10-28T23:33:34.099Z,12.59
2022-10-28T23:36:35.936Z,12.68
2022-10-28T23:39:37.791Z,12.60
2022-10-28T23:42:42.033Z,12.57
2022-10-28T23:45:43.843Z,12.65
2022-10-28T23:48:45.653Z,12.70
2022-10-28T23:51:47.673Z,12.77
2022-10-28T23:54:49.547Z,12.71
2022-10-28T23:57:51.644Z,12.70
